sensor_id;sensor_type;location;lat;lon;timestamp;P1;durP1;ratioP1;P2;durP2;ratioP2
32780;SDS011;19136;47.032;15.502;2024-02-21T00:01:36;9.98;;;4.90;;
32780;SDS011;19136;47.032;15.502;2024-02-21T00:04:03;14.20;;;4.85;;
32780;SDS011;19136;47.032;15.502;2024-02-21T00:06:29;9.60;;;3.88;;
32780;SDS011;19136;47.032;15.502;2024-02-21T00:08:54;9.40;;;4.15;;
32780;SDS011;19136;47.032;15.502;2024-02-21T00:11:23;12.80;;;4.35;;
32780;SDS011;19136;47.032;15.502;2024-02-21T00:13:49;11.02;;;3.53;;
32780;SDS011;19136;47.032;15.502;2024-02-21T00:16:26;12.90;;;3.58;;
32780;SDS011;19136;47.032;15.502;2024-02-21T00:18:52;12.55;;;4.22;;
32780;SDS011;19136;47.032;15.502;2024-02-21T00:21:21;17.05;;;4.22;;
32780;SDS011;19136;47.032;15.502;2024-02-21T00:23:47;13.73;;;3.90;;
32780;SDS011;19136;47.032;15.502;2024-02-21T00:26:15;12.23;;;3.80;;
32780;SDS011;19136;47.032;15.502;2024-02-21T00:28:40;11.55;;;4.13;;
32780;SDS011;19136;47.032;15.502;2024-02-21T00:31:09;15.73;;;4.22;;
32780;SDS011;19136;47.032;15.502;2024-02-21T00:33:39;13.32;;;5.25;;
32780;SDS011;19136;47.032;15.502;2024-02-21T00:36:05;14.05;;;4.68;;
32780;SDS011;19136;47.032;15.502;2024-02-21T00:38:32;10.80;;;4.57;;
32780;SDS011;19136;47.032;15.502;2024-02-21T00:41:01;12.43;;;3.80;;
32780;SDS011;19136;47.032;15.502;2024-02-21T00:43:27;14.02;;;3.80;;
32780;SDS011;19136;47.032;15.502;2024-02-21T00:45:57;11.80;;;4.07;;
32780;SDS011;19136;47.032;15.502;2024-02-21T00:48:27;8.25;;;3.50;;
32780;SDS011;19136;47.032;15.502;2024-02-21T00:50:53;8.88;;;3.95;;
32780;SDS011;19136;47.032;15.502;2024-02-21T00:53:19;11.15;;;4.15;;
32780;SDS011;19136;47.032;15.502;2024-02-21T00:55:45;10.88;;;4.35;;
32780;SDS011;19136;47.032;15.502;2024-02-21T00:58:11;13.02;;;4.25;;
32780;SDS011;19136;47.032;15.502;2024-02-21T01:00:39;7.93;;;3.30;;
32780;SDS011;19136;47.032;15.502;2024-02-21T01:03:08;11.98;;;3.00;;
32780;SDS011;19136;47.032;15.502;2024-02-21T01:05:39;8.60;;;2.97;;
32780;SDS011;19136;47.032;15.502;2024-02-21T01:08:05;8.73;;;3.17;;
32780;SDS011;19136;47.032;15.502;2024-02-21T01:10:31;10.48;;;2.97;;
32780;SDS011;19136;47.032;15.502;2024-02-21T01:12:57;9.88;;;3.85;;
32780;SDS011;19136;47.032;15.502;2024-02-21T01:15:25;11.93;;;3.85;;
32780;SDS011;19136;47.032;15.502;2024-02-21T01:17:51;7.05;;;3.13;;
32780;SDS011;19136;47.032;15.502;2024-02-21T01:20:20;7.22;;;2.97;;
32780;SDS011;19136;47.032;15.502;2024-02-21T01:22:46;12.40;;;3.15;;
32780;SDS011;19136;47.032;15.502;2024-02-21T01:25:13;10.98;;;3.47;;
32780;SDS011;19136;47.032;15.502;2024-02-21T01:27:43;6.57;;;2.53;;
32780;SDS011;19136;47.032;15.502;2024-02-21T01:30:09;8.15;;;2.70;;
32780;SDS011;19136;47.032;15.502;2024-02-21T01:32:39;10.38;;;3.30;;
32780;SDS011;19136;47.032;15.502;2024-02-21T01:35:05;11.77;;;2.60;;
32780;SDS011;19136;47.032;15.502;2024-02-21T01:37:31;15.82;;;3.97;;
32780;SDS011;19136;47.032;15.502;2024-02-21T01:39:57;8.65;;;2.60;;
32780;SDS011;19136;47.032;15.502;2024-02-21T01:42:26;9.85;;;2.72;;
32780;SDS011;19136;47.032;15.502;2024-02-21T01:44:51;6.93;;;2.55;;
32780;SDS011;19136;47.032;15.502;2024-02-21T01:47:17;5.25;;;2.17;;
32780;SDS011;19136;47.032;15.502;2024-02-21T01:49:43;8.93;;;2.33;;
32780;SDS011;19136;47.032;15.502;2024-02-21T01:52:09;11.82;;;3.50;;
32780;SDS011;19136;47.032;15.502;2024-02-21T01:54:37;7.50;;;3.22;;
32780;SDS011;19136;47.032;15.502;2024-02-21T01:57:03;6.10;;;2.88;;
32780;SDS011;19136;47.032;15.502;2024-02-21T01:59:30;5.30;;;2.63;;
32780;SDS011;19136;47.032;15.502;2024-02-21T02:01:55;8.95;;;2.47;;
32780;SDS011;19136;47.032;15.502;2024-02-21T02:04:22;7.70;;;2.85;;
32780;SDS011;19136;47.032;15.502;2024-02-21T02:06:55;12.05;;;3.15;;
32780;SDS011;19136;47.032;15.502;2024-02-21T02:09:21;5.75;;;2.75;;
32780;SDS011;19136;47.032;15.502;2024-02-21T02:11:49;5.75;;;2.78;;
32780;SDS011;19136;47.032;15.502;2024-02-21T02:14:15;4.25;;;1.80;;
32780;SDS011;19136;47.032;15.502;2024-02-21T02:16:41;10.32;;;3.03;;
32780;SDS011;19136;47.032;15.502;2024-02-21T02:19:08;14.30;;;4.25;;
32780;SDS011;19136;47.032;15.502;2024-02-21T02:21:39;13.77;;;4.57;;
32780;SDS011;19136;47.032;15.502;2024-02-21T02:24:06;9.68;;;3.72;;
32780;SDS011;19136;47.032;15.502;2024-02-21T02:26:32;13.63;;;4.20;;
32780;SDS011;19136;47.032;15.502;2024-02-21T02:29:04;12.07;;;4.22;;
32780;SDS011;19136;47.032;15.502;2024-02-21T02:31:30;8.85;;;3.88;;
32780;SDS011;19136;47.032;15.502;2024-02-21T02:33:55;14.93;;;4.32;;
32780;SDS011;19136;47.032;15.502;2024-02-21T02:36:21;11.15;;;3.97;;
32780;SDS011;19136;47.032;15.502;2024-02-21T02:38:47;13.60;;;4.03;;
32780;SDS011;19136;47.032;15.502;2024-02-21T02:41:13;8.85;;;3.67;;
32780;SDS011;19136;47.032;15.502;2024-02-21T02:43:41;8.18;;;3.88;;
32780;SDS011;19136;47.032;15.502;2024-02-21T02:46:06;11.15;;;4.20;;
32780;SDS011;19136;47.032;15.502;2024-02-21T02:48:35;8.63;;;2.92;;
32780;SDS011;19136;47.032;15.502;2024-02-21T02:51:01;11.45;;;4.22;;
32780;SDS011;19136;47.032;15.502;2024-02-21T02:53:26;8.70;;;3.58;;
32780;SDS011;19136;47.032;15.502;2024-02-21T02:55:53;12.85;;;4.00;;
32780;SDS011;19136;47.032;15.502;2024-02-21T02:58:18;9.40;;;3.58;;
32780;SDS011;19136;47.032;15.502;2024-02-21T03:00:44;12.57;;;3.90;;
32780;SDS011;19136;47.032;15.502;2024-02-21T03:03:09;13.02;;;3.72;;
32780;SDS011;19136;47.032;15.502;2024-02-21T03:05:35;9.93;;;3.88;;
32780;SDS011;19136;47.032;15.502;2024-02-21T03:08:00;11.07;;;4.20;;
32780;SDS011;19136;47.032;15.502;2024-02-21T03:10:26;10.07;;;3.97;;
32780;SDS011;19136;47.032;15.502;2024-02-21T03:12:51;12.50;;;3.70;;
32780;SDS011;19136;47.032;15.502;2024-02-21T03:15:18;9.98;;;3.55;;
32780;SDS011;19136;47.032;15.502;2024-02-21T03:17:44;11.25;;;3.63;;
32780;SDS011;19136;47.032;15.502;2024-02-21T03:20:10;7.82;;;3.35;;
32780;SDS011;19136;47.032;15.502;2024-02-21T03:22:39;8.35;;;3.42;;
32780;SDS011;19136;47.032;15.502;2024-02-21T03:25:04;8.30;;;3.30;;
32780;SDS011;19136;47.032;15.502;2024-02-21T03:27:31;9.98;;;4.38;;
32780;SDS011;19136;47.032;15.502;2024-02-21T03:29:56;7.10;;;3.92;;
32780;SDS011;19136;47.032;15.502;2024-02-21T03:32:21;10.10;;;3.78;;
32780;SDS011;19136;47.032;15.502;2024-02-21T03:34:47;13.73;;;5.32;;
32780;SDS011;19136;47.032;15.502;2024-02-21T03:37:12;8.02;;;4.40;;
32780;SDS011;19136;47.032;15.502;2024-02-21T03:39:39;9.60;;;3.83;;
32780;SDS011;19136;47.032;15.502;2024-02-21T03:42:05;10.05;;;4.43;;
32780;SDS011;19136;47.032;15.502;2024-02-21T03:44:39;9.93;;;4.45;;
32780;SDS011;19136;47.032;15.502;2024-02-21T03:47:11;14.27;;;4.57;;
32780;SDS011;19136;47.032;15.502;2024-02-21T03:49:44;11.95;;;4.90;;
32780;SDS011;19136;47.032;15.502;2024-02-21T03:52:12;15.57;;;5.20;;
32780;SDS011;19136;47.032;15.502;2024-02-21T03:54:38;16.95;;;5.90;;
32780;SDS011;19136;47.032;15.502;2024-02-21T03:57:06;11.02;;;5.68;;
32780;SDS011;19136;47.032;15.502;2024-02-21T03:59:32;14.93;;;5.20;;
32780;SDS011;19136;47.032;15.502;2024-02-21T04:01:58;12.15;;;5.10;;
32780;SDS011;19136;47.032;15.502;2024-02-21T04:04:25;12.38;;;4.82;;
32780;SDS011;19136;47.032;15.502;2024-02-21T04:06:51;12.15;;;4.93;;
32780;SDS011;19136;47.032;15.502;2024-02-21T04:09:18;11.73;;;4.82;;
32780;SDS011;19136;47.032;15.502;2024-02-21T04:11:44;15.90;;;5.03;;
32780;SDS011;19136;47.032;15.502;2024-02-21T04:14:09;11.30;;;4.65;;
32780;SDS011;19136;47.032;15.502;2024-02-21T04:16:37;9.88;;;4.30;;
32780;SDS011;19136;47.032;15.502;2024-02-21T04:19:04;11.77;;;4.45;;
32780;SDS011;19136;47.032;15.502;2024-02-21T04:21:34;14.10;;;5.10;;
32780;SDS011;19136;47.032;15.502;2024-02-21T04:24:00;17.95;;;5.03;;
32780;SDS011;19136;47.032;15.502;2024-02-21T04:26:27;14.13;;;5.70;;
32780;SDS011;19136;47.032;15.502;2024-02-21T04:28:52;12.05;;;5.22;;
32780;SDS011;19136;47.032;15.502;2024-02-21T04:31:18;13.52;;;5.22;;
32780;SDS011;19136;47.032;15.502;2024-02-21T04:33:46;12.60;;;4.72;;
32780;SDS011;19136;47.032;15.502;2024-02-21T04:36:11;13.40;;;4.60;;
32780;SDS011;19136;47.032;15.502;2024-02-21T04:38:40;10.98;;;4.82;;
32780;SDS011;19136;47.032;15.502;2024-02-21T04:41:08;12.90;;;4.60;;
32780;SDS011;19136;47.032;15.502;2024-02-21T04:43:34;9.05;;;4.13;;
32780;SDS011;19136;47.032;15.502;2024-02-21T04:46:06;9.65;;;4.38;;
32780;SDS011;19136;47.032;15.502;2024-02-21T04:48:33;12.25;;;4.10;;
32780;SDS011;19136;47.032;15.502;2024-02-21T04:51:04;10.18;;;3.80;;
32780;SDS011;19136;47.032;15.502;2024-02-21T04:53:30;10.90;;;4.03;;
32780;SDS011;19136;47.032;15.502;2024-02-21T04:55:56;11.85;;;3.85;;
32780;SDS011;19136;47.032;15.502;2024-02-21T04:58:21;13.15;;;3.90;;
32780;SDS011;19136;47.032;15.502;2024-02-21T05:00:47;7.47;;;3.72;;
32780;SDS011;19136;47.032;15.502;2024-02-21T05:03:12;8.85;;;3.60;;
32780;SDS011;19136;47.032;15.502;2024-02-21T05:05:38;9.65;;;3.67;;
32780;SDS011;19136;47.032;15.502;2024-02-21T05:08:03;12.18;;;3.92;;
32780;SDS011;19136;47.032;15.502;2024-02-21T05:10:29;14.32;;;4.18;;
32780;SDS011;19136;47.032;15.502;2024-02-21T05:12:54;10.23;;;3.92;;
32780;SDS011;19136;47.032;15.502;2024-02-21T05:15:19;13.98;;;4.45;;
32780;SDS011;19136;47.032;15.502;2024-02-21T05:17:45;12.70;;;4.25;;
32780;SDS011;19136;47.032;15.502;2024-02-21T05:20:10;9.35;;;4.15;;
32780;SDS011;19136;47.032;15.502;2024-02-21T05:22:36;17.15;;;4.60;;
32780;SDS011;19136;47.032;15.502;2024-02-21T05:25:01;10.73;;;5.68;;
32780;SDS011;19136;47.032;15.502;2024-02-21T05:27:27;11.45;;;3.67;;
32780;SDS011;19136;47.032;15.502;2024-02-21T05:29:54;10.85;;;4.45;;
32780;SDS011;19136;47.032;15.502;2024-02-21T05:32:19;12.15;;;3.75;;
32780;SDS011;19136;47.032;15.502;2024-02-21T05:34:48;11.43;;;4.13;;
32780;SDS011;19136;47.032;15.502;2024-02-21T05:37:13;17.23;;;5.05;;
32780;SDS011;19136;47.032;15.502;2024-02-21T05:39:39;10.85;;;4.30;;
32780;SDS011;19136;47.032;15.502;2024-02-21T05:42:05;17.15;;;5.20;;
32780;SDS011;19136;47.032;15.502;2024-02-21T05:44:31;16.10;;;4.45;;
32780;SDS011;19136;47.032;15.502;2024-02-21T05:46:57;17.17;;;5.15;;
32780;SDS011;19136;47.032;15.502;2024-02-21T05:49:23;12.60;;;4.90;;
32780;SDS011;19136;47.032;15.502;2024-02-21T05:51:49;13.90;;;4.20;;
32780;SDS011;19136;47.032;15.502;2024-02-21T05:54:15;15.68;;;4.63;;
32780;SDS011;19136;47.032;15.502;2024-02-21T05:56:45;28.45;;;5.35;;
32780;SDS011;19136;47.032;15.502;2024-02-21T05:59:11;22.95;;;5.65;;
32780;SDS011;19136;47.032;15.502;2024-02-21T06:01:37;32.33;;;5.50;;
32780;SDS011;19136;47.032;15.502;2024-02-21T06:04:06;25.10;;;5.68;;
32780;SDS011;19136;47.032;15.502;2024-02-21T06:06:31;12.15;;;5.75;;
32780;SDS011;19136;47.032;15.502;2024-02-21T06:08:57;20.02;;;6.55;;
32780;SDS011;19136;47.032;15.502;2024-02-21T06:11:27;34.92;;;6.10;;
32780;SDS011;19136;47.032;15.502;2024-02-21T06:13:53;24.67;;;6.00;;
32780;SDS011;19136;47.032;15.502;2024-02-21T06:16:18;23.40;;;6.75;;
32780;SDS011;19136;47.032;15.502;2024-02-21T06:18:44;26.65;;;6.00;;
32780;SDS011;19136;47.032;15.502;2024-02-21T06:21:10;23.83;;;6.35;;
32780;SDS011;19136;47.032;15.502;2024-02-21T06:23:36;26.35;;;6.63;;
32780;SDS011;19136;47.032;15.502;2024-02-21T06:26:02;29.17;;;6.72;;
32780;SDS011;19136;47.032;15.502;2024-02-21T06:28:28;28.83;;;5.57;;
32780;SDS011;19136;47.032;15.502;2024-02-21T06:30:53;25.17;;;5.75;;
32780;SDS011;19136;47.032;15.502;2024-02-21T06:33:19;19.90;;;5.70;;
32780;SDS011;19136;47.032;15.502;2024-02-21T06:35:50;29.80;;;5.72;;
32780;SDS011;19136;47.032;15.502;2024-02-21T06:38:18;32.92;;;7.30;;
32780;SDS011;19136;47.032;15.502;2024-02-21T06:40:44;28.60;;;6.07;;
32780;SDS011;19136;47.032;15.502;2024-02-21T06:43:16;14.30;;;5.78;;
32780;SDS011;19136;47.032;15.502;2024-02-21T06:45:41;25.60;;;5.32;;
32780;SDS011;19136;47.032;15.502;2024-02-21T06:48:07;12.93;;;4.93;;
32780;SDS011;19136;47.032;15.502;2024-02-21T06:50:33;15.95;;;5.10;;
32780;SDS011;19136;47.032;15.502;2024-02-21T06:52:59;18.90;;;5.75;;
32780;SDS011;19136;47.032;15.502;2024-02-21T06:55:24;18.38;;;4.93;;
32780;SDS011;19136;47.032;15.502;2024-02-21T06:57:50;13.07;;;3.95;;
32780;SDS011;19136;47.032;15.502;2024-02-21T07:00:16;12.48;;;3.72;;
32780;SDS011;19136;47.032;15.502;2024-02-21T07:02:42;18.13;;;3.50;;
32780;SDS011;19136;47.032;15.502;2024-02-21T07:05:07;7.38;;;2.83;;
32780;SDS011;19136;47.032;15.502;2024-02-21T07:07:34;11.70;;;3.40;;
32780;SDS011;19136;47.032;15.502;2024-02-21T07:10:00;18.50;;;3.45;;
32780;SDS011;19136;47.032;15.502;2024-02-21T07:12:26;15.98;;;3.75;;
32780;SDS011;19136;47.032;15.502;2024-02-21T07:14:52;7.13;;;2.95;;
32780;SDS011;19136;47.032;15.502;2024-02-21T07:17:17;9.35;;;2.90;;
32780;SDS011;19136;47.032;15.502;2024-02-21T07:19:43;19.30;;;3.45;;
32780;SDS011;19136;47.032;15.502;2024-02-21T07:22:09;15.10;;;3.03;;
32780;SDS011;19136;47.032;15.502;2024-02-21T07:24:43;20.63;;;3.60;;
32780;SDS011;19136;47.032;15.502;2024-02-21T07:27:09;14.45;;;2.95;;
32780;SDS011;19136;47.032;15.502;2024-02-21T07:29:34;12.75;;;3.17;;
32780;SDS011;19136;47.032;15.502;2024-02-21T07:32:00;10.93;;;2.65;;
32780;SDS011;19136;47.032;15.502;2024-02-21T07:34:26;17.15;;;2.78;;
32780;SDS011;19136;47.032;15.502;2024-02-21T07:36:52;13.20;;;3.35;;
32780;SDS011;19136;47.032;15.502;2024-02-21T07:39:17;8.63;;;2.95;;
32780;SDS011;19136;47.032;15.502;2024-02-21T07:41:43;13.77;;;2.95;;
32780;SDS011;19136;47.032;15.502;2024-02-21T07:44:14;17.85;;;2.90;;
32780;SDS011;19136;47.032;15.502;2024-02-21T07:46:40;16.70;;;3.10;;
32780;SDS011;19136;47.032;15.502;2024-02-21T07:49:05;10.30;;;2.72;;
32780;SDS011;19136;47.032;15.502;2024-02-21T07:51:31;10.82;;;2.88;;
32780;SDS011;19136;47.032;15.502;2024-02-21T07:53:57;13.07;;;2.80;;
32780;SDS011;19136;47.032;15.502;2024-02-21T07:56:27;16.63;;;2.80;;
32780;SDS011;19136;47.032;15.502;2024-02-21T07:58:53;9.63;;;3.28;;
32780;SDS011;19136;47.032;15.502;2024-02-21T08:01:18;7.18;;;2.80;;
32780;SDS011;19136;47.032;15.502;2024-02-21T08:03:46;7.78;;;2.78;;
32780;SDS011;19136;47.032;15.502;2024-02-21T08:06:15;13.05;;;2.90;;
32780;SDS011;19136;47.032;15.502;2024-02-21T08:08:41;20.42;;;3.20;;
32780;SDS011;19136;47.032;15.502;2024-02-21T08:11:06;8.68;;;2.83;;
32780;SDS011;19136;47.032;15.502;2024-02-21T08:13:32;10.20;;;3.30;;
32780;SDS011;19136;47.032;15.502;2024-02-21T08:15:58;21.83;;;3.42;;
32780;SDS011;19136;47.032;15.502;2024-02-21T08:18:23;15.85;;;3.00;;
32780;SDS011;19136;47.032;15.502;2024-02-21T08:20:49;10.10;;;2.55;;
32780;SDS011;19136;47.032;15.502;2024-02-21T08:23:18;10.85;;;3.53;;
32780;SDS011;19136;47.032;15.502;2024-02-21T08:25:47;8.07;;;2.92;;
32780;SDS011;19136;47.032;15.502;2024-02-21T08:28:13;9.15;;;2.30;;
32780;SDS011;19136;47.032;15.502;2024-02-21T08:30:39;6.82;;;2.35;;
32780;SDS011;19136;47.032;15.502;2024-02-21T08:33:05;10.50;;;2.50;;
32780;SDS011;19136;47.032;15.502;2024-02-21T08:35:32;9.32;;;2.58;;
32780;SDS011;19136;47.032;15.502;2024-02-21T08:37:57;7.38;;;2.55;;
32780;SDS011;19136;47.032;15.502;2024-02-21T08:40:23;9.80;;;2.85;;
32780;SDS011;19136;47.032;15.502;2024-02-21T08:42:49;11.98;;;2.80;;
32780;SDS011;19136;47.032;15.502;2024-02-21T08:45:15;9.90;;;3.53;;
32780;SDS011;19136;47.032;15.502;2024-02-21T08:47:40;9.00;;;2.42;;
32780;SDS011;19136;47.032;15.502;2024-02-21T08:50:06;11.45;;;3.53;;
32780;SDS011;19136;47.032;15.502;2024-02-21T08:52:32;11.73;;;2.10;;
32780;SDS011;19136;47.032;15.502;2024-02-21T08:54:58;11.43;;;2.47;;
32780;SDS011;19136;47.032;15.502;2024-02-21T08:57:24;7.63;;;2.55;;
32780;SDS011;19136;47.032;15.502;2024-02-21T08:59:50;4.78;;;2.35;;
32780;SDS011;19136;47.032;15.502;2024-02-21T09:02:15;21.35;;;4.45;;
32780;SDS011;19136;47.032;15.502;2024-02-21T09:04:42;9.05;;;2.60;;
32780;SDS011;19136;47.032;15.502;2024-02-21T09:07:11;6.50;;;2.83;;
32780;SDS011;19136;47.032;15.502;2024-02-21T09:09:37;6.60;;;3.03;;
32780;SDS011;19136;47.032;15.502;2024-02-21T09:12:06;10.35;;;2.78;;
32780;SDS011;19136;47.032;15.502;2024-02-21T09:14:32;8.48;;;3.03;;
32780;SDS011;19136;47.032;15.502;2024-02-21T09:16:58;8.02;;;3.05;;
32780;SDS011;19136;47.032;15.502;2024-02-21T09:19:23;15.45;;;2.95;;
32780;SDS011;19136;47.032;15.502;2024-02-21T09:21:49;8.77;;;3.13;;
32780;SDS011;19136;47.032;15.502;2024-02-21T09:24:15;13.32;;;3.47;;
32780;SDS011;19136;47.032;15.502;2024-02-21T09:26:41;6.57;;;2.83;;
32780;SDS011;19136;47.032;15.502;2024-02-21T09:29:09;8.68;;;3.00;;
32780;SDS011;19136;47.032;15.502;2024-02-21T09:31:51;9.73;;;2.97;;
32780;SDS011;19136;47.032;15.502;2024-02-21T09:34:17;15.30;;;3.13;;
32780;SDS011;19136;47.032;15.502;2024-02-21T09:36:43;10.18;;;3.28;;
32780;SDS011;19136;47.032;15.502;2024-02-21T09:39:10;10.57;;;3.10;;
32780;SDS011;19136;47.032;15.502;2024-02-21T09:41:49;6.50;;;2.42;;
32780;SDS011;19136;47.032;15.502;2024-02-21T09:49:30;5.53;;;2.50;;
32780;SDS011;19136;47.032;15.502;2024-02-21T09:52:00;6.45;;;2.60;;
32780;SDS011;19136;47.032;15.502;2024-02-21T09:54:27;8.73;;;2.47;;
32780;SDS011;19136;47.032;15.502;2024-02-21T09:56:53;6.20;;;2.50;;
32780;SDS011;19136;47.032;15.502;2024-02-21T09:59:31;10.35;;;2.70;;
32780;SDS011;19136;47.032;15.502;2024-02-21T10:02:00;6.38;;;2.70;;
32780;SDS011;19136;47.032;15.502;2024-02-21T10:04:26;6.05;;;2.65;;
32780;SDS011;19136;47.032;15.502;2024-02-21T10:06:53;9.07;;;2.20;;
32780;SDS011;19136;47.032;15.502;2024-02-21T10:11:53;8.05;;;2.63;;
32780;SDS011;19136;47.032;15.502;2024-02-21T10:14:18;10.07;;;2.42;;
32780;SDS011;19136;47.032;15.502;2024-02-21T10:16:48;10.57;;;2.50;;
32780;SDS011;19136;47.032;15.502;2024-02-21T10:19:17;7.75;;;3.40;;
32780;SDS011;19136;47.032;15.502;2024-02-21T10:21:43;7.47;;;3.10;;
32780;SDS011;19136;47.032;15.502;2024-02-21T10:24:10;7.63;;;2.30;;
32780;SDS011;19136;47.032;15.502;2024-02-21T10:26:37;10.88;;;2.63;;
32780;SDS011;19136;47.032;15.502;2024-02-21T10:29:03;7.38;;;2.30;;
32780;SDS011;19136;47.032;15.502;2024-02-21T10:31:29;6.90;;;2.63;;
32780;SDS011;19136;47.032;15.502;2024-02-21T10:33:56;8.23;;;3.00;;
32780;SDS011;19136;47.032;15.502;2024-02-21T10:36:24;8.85;;;2.42;;
32780;SDS011;19136;47.032;15.502;2024-02-21T10:38:50;7.90;;;2.90;;
32780;SDS011;19136;47.032;15.502;2024-02-21T10:41:16;10.20;;;2.70;;
32780;SDS011;19136;47.032;15.502;2024-02-21T10:43:46;5.47;;;2.38;;
32780;SDS011;19136;47.032;15.502;2024-02-21T10:46:15;6.32;;;2.65;;
32780;SDS011;19136;47.032;15.502;2024-02-21T10:48:44;6.82;;;2.80;;
32780;SDS011;19136;47.032;15.502;2024-02-21T10:56:30;8.68;;;3.15;;
32780;SDS011;19136;47.032;15.502;2024-02-21T10:59:00;12.80;;;2.55;;
32780;SDS011;19136;47.032;15.502;2024-02-21T11:01:26;10.77;;;2.63;;
32780;SDS011;19136;47.032;15.502;2024-02-21T11:03:53;5.25;;;2.28;;
32780;SDS011;19136;47.032;15.502;2024-02-21T11:06:19;10.75;;;2.58;;
32780;SDS011;19136;47.032;15.502;2024-02-21T11:08:45;10.23;;;2.53;;
32780;SDS011;19136;47.032;15.502;2024-02-21T11:11:14;3.72;;;1.88;;
32780;SDS011;19136;47.032;15.502;2024-02-21T11:13:44;6.53;;;2.38;;
32780;SDS011;19136;47.032;15.502;2024-02-21T11:16:11;11.10;;;2.30;;
32780;SDS011;19136;47.032;15.502;2024-02-21T11:18:37;6.35;;;2.88;;
32780;SDS011;19136;47.032;15.502;2024-02-21T11:21:03;12.90;;;2.88;;
32780;SDS011;19136;47.032;15.502;2024-02-21T11:23:30;7.63;;;2.10;;
32780;SDS011;19136;47.032;15.502;2024-02-21T11:28:32;4.15;;;1.88;;
32780;SDS011;19136;47.032;15.502;2024-02-21T11:31:08;4.00;;;1.95;;
32780;SDS011;19136;47.032;15.502;2024-02-21T11:33:41;6.53;;;1.60;;
32780;SDS011;19136;47.032;15.502;2024-02-21T11:36:11;4.72;;;2.10;;
32780;SDS011;19136;47.032;15.502;2024-02-21T11:38:48;4.18;;;1.63;;
32780;SDS011;19136;47.032;15.502;2024-02-21T11:41:15;5.20;;;1.98;;
32780;SDS011;19136;47.032;15.502;2024-02-21T11:43:44;7.60;;;1.90;;
32780;SDS011;19136;47.032;15.502;2024-02-21T11:46:13;5.65;;;1.58;;
32780;SDS011;19136;47.032;15.502;2024-02-21T11:48:40;2.95;;;1.52;;
32780;SDS011;19136;47.032;15.502;2024-02-21T11:51:09;7.70;;;1.83;;
32780;SDS011;19136;47.032;15.502;2024-02-21T11:53:38;7.63;;;2.08;;
32780;SDS011;19136;47.032;15.502;2024-02-21T11:56:03;7.05;;;1.33;;
32780;SDS011;19136;47.032;15.502;2024-02-21T11:58:31;6.30;;;1.73;;
32780;SDS011;19136;47.032;15.502;2024-02-21T12:00:59;3.00;;;1.20;;
32780;SDS011;19136;47.032;15.502;2024-02-21T12:03:24;4.32;;;1.70;;
32780;SDS011;19136;47.032;15.502;2024-02-21T12:05:51;4.55;;;1.45;;
32780;SDS011;19136;47.032;15.502;2024-02-21T12:08:44;6.70;;;1.23;;
32780;SDS011;19136;47.032;15.502;2024-02-21T12:11:20;6.13;;;1.33;;
32780;SDS011;19136;47.032;15.502;2024-02-21T12:13:48;5.22;;;1.52;;
32780;SDS011;19136;47.032;15.502;2024-02-21T12:16:32;10.32;;;1.55;;
32780;SDS011;19136;47.032;15.502;2024-02-21T12:18:59;9.85;;;1.75;;
32780;SDS011;19136;47.032;15.502;2024-02-21T12:21:34;3.97;;;1.55;;
32780;SDS011;19136;47.032;15.502;2024-02-21T12:24:22;3.65;;;1.27;;
32780;SDS011;19136;47.032;15.502;2024-02-21T12:26:53;5.28;;;1.60;;
32780;SDS011;19136;47.032;15.502;2024-02-21T12:29:23;6.43;;;1.77;;
32780;SDS011;19136;47.032;15.502;2024-02-21T12:32:00;2.95;;;1.50;;
32780;SDS011;19136;47.032;15.502;2024-02-21T12:34:30;5.97;;;1.63;;
32780;SDS011;19136;47.032;15.502;2024-02-21T12:37:04;3.53;;;1.35;;
32780;SDS011;19136;47.032;15.502;2024-02-21T12:39:41;3.75;;;1.30;;
32780;SDS011;19136;47.032;15.502;2024-02-21T12:42:11;1.95;;;0.90;;
32780;SDS011;19136;47.032;15.502;2024-02-21T12:44:51;4.20;;;1.20;;
32780;SDS011;19136;47.032;15.502;2024-02-21T12:47:19;6.68;;;1.40;;
32780;SDS011;19136;47.032;15.502;2024-02-21T12:49:53;7.45;;;1.15;;
32780;SDS011;19136;47.032;15.502;2024-02-21T12:52:28;6.15;;;1.15;;
32780;SDS011;19136;47.032;15.502;2024-02-21T12:54:55;6.50;;;1.20;;
32780;SDS011;19136;47.032;15.502;2024-02-21T12:57:27;3.85;;;1.10;;
32780;SDS011;19136;47.032;15.502;2024-02-21T12:59:55;4.43;;;1.48;;
32780;SDS011;19136;47.032;15.502;2024-02-21T13:02:26;3.28;;;1.17;;
32780;SDS011;19136;47.032;15.502;2024-02-21T13:04:52;5.68;;;1.58;;
32780;SDS011;19136;47.032;15.502;2024-02-21T13:07:23;7.28;;;1.48;;
32780;SDS011;19136;47.032;15.502;2024-02-21T13:09:58;6.15;;;1.23;;
32780;SDS011;19136;47.032;15.502;2024-02-21T13:12:27;6.55;;;1.63;;
32780;SDS011;19136;47.032;15.502;2024-02-21T13:14:53;10.40;;;1.40;;
32780;SDS011;19136;47.032;15.502;2024-02-21T13:17:24;4.78;;;1.40;;
32780;SDS011;19136;47.032;15.502;2024-02-21T13:19:57;3.03;;;1.20;;
32780;SDS011;19136;47.032;15.502;2024-02-21T13:22:28;3.10;;;1.30;;
32780;SDS011;19136;47.032;15.502;2024-02-21T13:25:04;3.40;;;1.30;;
32780;SDS011;19136;47.032;15.502;2024-02-21T13:27:39;2.72;;;1.27;;
32780;SDS011;19136;47.032;15.502;2024-02-21T13:30:08;3.47;;;1.10;;
32780;SDS011;19136;47.032;15.502;2024-02-21T13:32:38;4.45;;;1.30;;
32780;SDS011;19136;47.032;15.502;2024-02-21T13:35:13;2.35;;;1.08;;
32780;SDS011;19136;47.032;15.502;2024-02-21T13:37:47;8.15;;;1.77;;
32780;SDS011;19136;47.032;15.502;2024-02-21T13:40:15;4.32;;;1.48;;
32780;SDS011;19136;47.032;15.502;2024-02-21T13:42:46;5.70;;;1.17;;
32780;SDS011;19136;47.032;15.502;2024-02-21T13:45:20;3.90;;;1.25;;
32780;SDS011;19136;47.032;15.502;2024-02-21T13:47:57;5.95;;;1.30;;
32780;SDS011;19136;47.032;15.502;2024-02-21T13:50:32;6.88;;;1.33;;
32780;SDS011;19136;47.032;15.502;2024-02-21T13:53:00;5.82;;;1.52;;
32780;SDS011;19136;47.032;15.502;2024-02-21T13:55:31;5.43;;;1.15;;
32780;SDS011;19136;47.032;15.502;2024-02-21T13:58:02;5.20;;;1.20;;
32780;SDS011;19136;47.032;15.502;2024-02-21T14:00:30;4.75;;;1.10;;
32780;SDS011;19136;47.032;15.502;2024-02-21T14:03:02;2.22;;;1.10;;
32780;SDS011;19136;47.032;15.502;2024-02-21T14:05:27;5.68;;;1.35;;
32780;SDS011;19136;47.032;15.502;2024-02-21T14:07:59;3.75;;;1.13;;
32780;SDS011;19136;47.032;15.502;2024-02-21T14:10:25;4.35;;;1.15;;
32780;SDS011;19136;47.032;15.502;2024-02-21T14:12:57;2.88;;;1.20;;
32780;SDS011;19136;47.032;15.502;2024-02-21T14:15:26;3.42;;;1.13;;
32780;SDS011;19136;47.032;15.502;2024-02-21T14:18:03;3.22;;;1.30;;
32780;SDS011;19136;47.032;15.502;2024-02-21T14:20:32;3.47;;;1.50;;
32780;SDS011;19136;47.032;15.502;2024-02-21T14:22:59;5.22;;;1.20;;
32780;SDS011;19136;47.032;15.502;2024-02-21T14:25:28;10.07;;;1.75;;
32780;SDS011;19136;47.032;15.502;2024-02-21T14:27:56;2.78;;;1.20;;
32780;SDS011;19136;47.032;15.502;2024-02-21T14:30:26;6.40;;;1.48;;
32780;SDS011;19136;47.032;15.502;2024-02-21T14:32:53;12.13;;;1.20;;
32780;SDS011;19136;47.032;15.502;2024-02-21T14:35:25;2.70;;;1.20;;
32780;SDS011;19136;47.032;15.502;2024-02-21T14:37:51;2.10;;;1.00;;
32780;SDS011;19136;47.032;15.502;2024-02-21T14:40:21;2.88;;;1.08;;
32780;SDS011;19136;47.032;15.502;2024-02-21T14:42:47;3.50;;;1.13;;
32780;SDS011;19136;47.032;15.502;2024-02-21T14:45:13;6.10;;;1.48;;
32780;SDS011;19136;47.032;15.502;2024-02-21T14:47:42;3.78;;;1.30;;